Orlando, Florida
Traffic Map
Current Weather Conditions
Orlando, Florida
Overcast Light Rain
Overcast
60°
Feels Like: 60°
Wind Chill: 60° Ceiling: 500
Heat Index: 60° Visibility: 5mi
Dew Point: 57° Wind: 10mph
Humidity: 90% Direction: 270° (W)
Pressure: 30.05in Gusts: 0mph
Raw Report DataKORL 070053Z 27009KT 5SM -RA BR OVC005 16/14 A3005 RMK AO2 CIG 004V009 SLP180 P0008 T01560139
Traffic Incident Summary
Active as of:
Severity:
Category:
InformationThere was an issue retrieving the traffic information for this location. Please try a different location or try again shortly.
Advertisements
Track Severe Weather on mobile